KTSP/TSP METAR and TAF weather

Enter ICAO airport designator
Station Type Date Time Source
KTSP METAR 2019/12/10 19:35 UTC NOAA

KTSP 101935Z AUTO 11011G16KT 9SM CLR 12/00 A3029 RMK AO2


Station Type Date Time Source
KTSP Decoded METAR 2019/12/10 19:35 UTC NOAA

Station name not available
Dec 10, 2019 - 02:35 PM EST / 2019.12.10 1935 UTC
Wind: from the ESE (110 degrees) at 13 MPH (11 KT) gusting to 18 MPH (16 KT):0
Visibility: 9 mile(s):0
Sky conditions: clear
Temperature: 53 F (12 C)
Dew Point: 32 F (0 C)
Relative Humidity: 43%
Pressure (altimeter): 30.29 in. Hg (1025 hPa)
ob: KTSP 101935Z AUTO 11011G16KT 9SM CLR 12/00 A3029 RMK AO2
cycle: 19

Station Type Date Time Source
KTSP TAF UTC NOAA

Error!

Example: see airport list